sensor_id;sensor_type;location;lat;lon;timestamp;temperature;humidity
20068;DHT22;10194;50.824;7.134;2024-02-23T00:00:46;6.40;99.90
20068;DHT22;10194;50.824;7.134;2024-02-23T00:03:12;6.30;99.90
20068;DHT22;10194;50.824;7.134;2024-02-23T00:05:37;6.10;99.90
20068;DHT22;10194;50.824;7.134;2024-02-23T00:08:03;6.10;99.90
20068;DHT22;10194;50.824;7.134;2024-02-23T00:10:29;6.00;99.90
20068;DHT22;10194;50.824;7.134;2024-02-23T00:12:55;5.90;99.90
20068;DHT22;10194;50.824;7.134;2024-02-23T00:15:21;5.90;99.90
20068;DHT22;10194;50.824;7.134;2024-02-23T00:17:47;5.80;99.90
20068;DHT22;10194;50.824;7.134;2024-02-23T00:20:13;5.80;99.90
20068;DHT22;10194;50.824;7.134;2024-02-23T00:22:40;5.70;99.90
20068;DHT22;10194;50.824;7.134;2024-02-23T00:25:06;5.70;99.90
20068;DHT22;10194;50.824;7.134;2024-02-23T00:27:32;5.70;99.90
20068;DHT22;10194;50.824;7.134;2024-02-23T00:29:57;5.60;99.90
20068;DHT22;10194;50.824;7.134;2024-02-23T00:32:23;5.60;99.90
20068;DHT22;10194;50.824;7.134;2024-02-23T00:34:49;5.60;99.90
20068;DHT22;10194;50.824;7.134;2024-02-23T00:37:14;5.50;99.90
20068;DHT22;10194;50.824;7.134;2024-02-23T00:39:40;5.50;99.90
20068;DHT22;10194;50.824;7.134;2024-02-23T00:42:06;5.40;99.90
20068;DHT22;10194;50.824;7.134;2024-02-23T00:44:33;5.40;99.90
20068;DHT22;10194;50.824;7.134;2024-02-23T00:46:58;5.60;99.90
20068;DHT22;10194;50.824;7.134;2024-02-23T00:49:27;5.50;99.90
20068;DHT22;10194;50.824;7.134;2024-02-23T00:51:54;5.50;99.90
20068;DHT22;10194;50.824;7.134;2024-02-23T00:54:21;5.40;99.90
20068;DHT22;10194;50.824;7.134;2024-02-23T00:56:46;5.40;99.90
20068;DHT22;10194;50.824;7.134;2024-02-23T00:59:12;5.40;99.90
20068;DHT22;10194;50.824;7.134;2024-02-23T01:01:38;5.40;99.90
20068;DHT22;10194;50.824;7.134;2024-02-23T01:04:04;5.40;99.90
20068;DHT22;10194;50.824;7.134;2024-02-23T01:06:30;5.30;99.90
20068;DHT22;10194;50.824;7.134;2024-02-23T01:08:56;5.30;99.90
20068;DHT22;10194;50.824;7.134;2024-02-23T01:11:21;5.20;99.90
20068;DHT22;10194;50.824;7.134;2024-02-23T01:13:47;5.20;99.90
20068;DHT22;10194;50.824;7.134;2024-02-23T01:16:13;5.20;99.90
20068;DHT22;10194;50.824;7.134;2024-02-23T01:18:39;5.10;99.90
20068;DHT22;10194;50.824;7.134;2024-02-23T01:21:04;5.10;99.90
20068;DHT22;10194;50.824;7.134;2024-02-23T01:23:30;5.20;99.90
20068;DHT22;10194;50.824;7.134;2024-02-23T01:25:56;5.10;99.90
20068;DHT22;10194;50.824;7.134;2024-02-23T01:28:24;5.10;99.90
20068;DHT22;10194;50.824;7.134;2024-02-23T01:30:49;5.10;99.90
20068;DHT22;10194;50.824;7.134;2024-02-23T01:33:15;5.00;99.90
20068;DHT22;10194;50.824;7.134;2024-02-23T01:35:41;5.10;99.90
20068;DHT22;10194;50.824;7.134;2024-02-23T01:38:07;5.10;99.90
20068;DHT22;10194;50.824;7.134;2024-02-23T01:40:33;5.00;99.90
20068;DHT22;10194;50.824;7.134;2024-02-23T01:43:05;5.00;99.90
20068;DHT22;10194;50.824;7.134;2024-02-23T01:45:31;5.00;99.90
20068;DHT22;10194;50.824;7.134;2024-02-23T01:48:01;5.00;99.90
20068;DHT22;10194;50.824;7.134;2024-02-23T01:50:27;5.00;99.90
20068;DHT22;10194;50.824;7.134;2024-02-23T01:52:55;4.90;99.90
20068;DHT22;10194;50.824;7.134;2024-02-23T01:55:23;4.90;99.90
20068;DHT22;10194;50.824;7.134;2024-02-23T01:57:49;4.90;99.90
20068;DHT22;10194;50.824;7.134;2024-02-23T02:00:17;4.90;99.90
20068;DHT22;10194;50.824;7.134;2024-02-23T02:02:44;4.80;99.90
20068;DHT22;10194;50.824;7.134;2024-02-23T02:05:10;4.70;99.90
20068;DHT22;10194;50.824;7.134;2024-02-23T02:07:37;4.80;99.90
20068;DHT22;10194;50.824;7.134;2024-02-23T02:10:05;4.80;99.90
20068;DHT22;10194;50.824;7.134;2024-02-23T02:12:32;4.70;99.90
20068;DHT22;10194;50.824;7.134;2024-02-23T02:14:58;4.70;99.90
20068;DHT22;10194;50.824;7.134;2024-02-23T02:17:27;4.70;99.90
20068;DHT22;10194;50.824;7.134;2024-02-23T02:19:53;4.80;99.90
20068;DHT22;10194;50.824;7.134;2024-02-23T02:22:19;4.80;99.90
20068;DHT22;10194;50.824;7.134;2024-02-23T02:24:45;4.70;99.90
20068;DHT22;10194;50.824;7.134;2024-02-23T02:27:12;4.70;99.90
20068;DHT22;10194;50.824;7.134;2024-02-23T02:29:38;4.70;99.90
20068;DHT22;10194;50.824;7.134;2024-02-23T02:32:04;4.70;99.90
20068;DHT22;10194;50.824;7.134;2024-02-23T02:34:30;4.70;99.90
20068;DHT22;10194;50.824;7.134;2024-02-23T02:36:56;4.70;99.90
20068;DHT22;10194;50.824;7.134;2024-02-23T02:39:22;4.80;99.90
20068;DHT22;10194;50.824;7.134;2024-02-23T02:41:50;4.70;99.90
20068;DHT22;10194;50.824;7.134;2024-02-23T02:44:16;4.70;99.90
20068;DHT22;10194;50.824;7.134;2024-02-23T02:46:42;4.70;99.90
20068;DHT22;10194;50.824;7.134;2024-02-23T02:49:08;4.60;99.90
20068;DHT22;10194;50.824;7.134;2024-02-23T02:51:34;4.60;99.90
20068;DHT22;10194;50.824;7.134;2024-02-23T02:54:00;4.70;99.90
20068;DHT22;10194;50.824;7.134;2024-02-23T02:56:26;4.70;99.90
20068;DHT22;10194;50.824;7.134;2024-02-23T02:58:52;4.60;99.90
20068;DHT22;10194;50.824;7.134;2024-02-23T03:01:17;4.60;99.90
20068;DHT22;10194;50.824;7.134;2024-02-23T03:03:43;4.60;99.90
20068;DHT22;10194;50.824;7.134;2024-02-23T03:06:09;4.50;99.90
20068;DHT22;10194;50.824;7.134;2024-02-23T03:08:34;4.50;99.90
20068;DHT22;10194;50.824;7.134;2024-02-23T03:11:00;4.50;99.90
20068;DHT22;10194;50.824;7.134;2024-02-23T03:13:26;4.50;99.90
20068;DHT22;10194;50.824;7.134;2024-02-23T03:15:52;4.60;99.90
20068;DHT22;10194;50.824;7.134;2024-02-23T03:18:17;4.50;99.90
20068;DHT22;10194;50.824;7.134;2024-02-23T03:20:44;4.50;99.90
20068;DHT22;10194;50.824;7.134;2024-02-23T03:23:10;4.50;99.90
20068;DHT22;10194;50.824;7.134;2024-02-23T03:25:36;4.50;99.90
20068;DHT22;10194;50.824;7.134;2024-02-23T03:28:02;4.40;99.90
20068;DHT22;10194;50.824;7.134;2024-02-23T03:30:28;4.40;99.90
20068;DHT22;10194;50.824;7.134;2024-02-23T03:32:53;4.50;99.90
20068;DHT22;10194;50.824;7.134;2024-02-23T03:35:19;4.40;99.90
20068;DHT22;10194;50.824;7.134;2024-02-23T03:37:45;4.50;99.90
20068;DHT22;10194;50.824;7.134;2024-02-23T03:40:11;4.50;99.90
20068;DHT22;10194;50.824;7.134;2024-02-23T03:42:38;4.50;99.90
20068;DHT22;10194;50.824;7.134;2024-02-23T03:45:04;4.50;99.90
20068;DHT22;10194;50.824;7.134;2024-02-23T03:47:31;4.40;99.90
20068;DHT22;10194;50.824;7.134;2024-02-23T03:49:56;4.40;99.90
20068;DHT22;10194;50.824;7.134;2024-02-23T03:52:22;4.40;99.90
20068;DHT22;10194;50.824;7.134;2024-02-23T03:54:48;4.40;99.90
20068;DHT22;10194;50.824;7.134;2024-02-23T03:57:14;4.50;99.90
20068;DHT22;10194;50.824;7.134;2024-02-23T03:59:54;4.60;99.90
20068;DHT22;10194;50.824;7.134;2024-02-23T04:02:20;4.60;99.90
20068;DHT22;10194;50.824;7.134;2024-02-23T04:04:47;4.70;99.90
20068;DHT22;10194;50.824;7.134;2024-02-23T04:07:13;4.70;99.90
20068;DHT22;10194;50.824;7.134;2024-02-23T04:09:38;4.70;99.90
20068;DHT22;10194;50.824;7.134;2024-02-23T04:12:04;4.70;99.90
20068;DHT22;10194;50.824;7.134;2024-02-23T04:14:32;4.70;99.90
20068;DHT22;10194;50.824;7.134;2024-02-23T04:17:04;4.60;99.90
20068;DHT22;10194;50.824;7.134;2024-02-23T04:19:30;4.60;99.90
20068;DHT22;10194;50.824;7.134;2024-02-23T04:21:56;4.70;99.90
20068;DHT22;10194;50.824;7.134;2024-02-23T04:24:22;4.70;99.90
20068;DHT22;10194;50.824;7.134;2024-02-23T04:26:47;4.70;99.90
20068;DHT22;10194;50.824;7.134;2024-02-23T04:29:13;4.70;99.90
20068;DHT22;10194;50.824;7.134;2024-02-23T04:31:39;4.70;99.90
20068;DHT22;10194;50.824;7.134;2024-02-23T04:34:04;4.50;99.90
20068;DHT22;10194;50.824;7.134;2024-02-23T04:36:30;4.50;99.90
20068;DHT22;10194;50.824;7.134;2024-02-23T04:38:56;4.60;99.90
20068;DHT22;10194;50.824;7.134;2024-02-23T04:41:22;4.60;99.90
20068;DHT22;10194;50.824;7.134;2024-02-23T04:43:48;4.60;99.90
20068;DHT22;10194;50.824;7.134;2024-02-23T04:46:14;4.50;99.90
20068;DHT22;10194;50.824;7.134;2024-02-23T04:48:40;4.50;99.90
20068;DHT22;10194;50.824;7.134;2024-02-23T04:51:07;4.40;99.90
20068;DHT22;10194;50.824;7.134;2024-02-23T04:53:38;4.30;99.90
20068;DHT22;10194;50.824;7.134;2024-02-23T04:56:05;4.30;99.90
20068;DHT22;10194;50.824;7.134;2024-02-23T04:58:31;4.20;99.90
20068;DHT22;10194;50.824;7.134;2024-02-23T05:00:57;4.20;99.90
20068;DHT22;10194;50.824;7.134;2024-02-23T05:03:22;4.10;99.90
20068;DHT22;10194;50.824;7.134;2024-02-23T05:05:48;4.00;99.90
20068;DHT22;10194;50.824;7.134;2024-02-23T05:08:22;4.20;99.90
20068;DHT22;10194;50.824;7.134;2024-02-23T05:10:52;4.20;99.90
20068;DHT22;10194;50.824;7.134;2024-02-23T05:13:18;4.10;99.90
20068;DHT22;10194;50.824;7.134;2024-02-23T05:15:44;4.20;99.90
20068;DHT22;10194;50.824;7.134;2024-02-23T05:18:10;4.20;99.90
20068;DHT22;10194;50.824;7.134;2024-02-23T05:20:35;4.10;99.90
20068;DHT22;10194;50.824;7.134;2024-02-23T05:23:01;4.00;99.90
20068;DHT22;10194;50.824;7.134;2024-02-23T05:25:27;4.00;99.90
20068;DHT22;10194;50.824;7.134;2024-02-23T05:27:53;4.00;99.90
20068;DHT22;10194;50.824;7.134;2024-02-23T05:30:19;3.90;99.90
20068;DHT22;10194;50.824;7.134;2024-02-23T05:32:45;3.70;99.90
20068;DHT22;10194;50.824;7.134;2024-02-23T05:35:12;3.70;99.90
20068;DHT22;10194;50.824;7.134;2024-02-23T05:37:38;3.60;99.90
20068;DHT22;10194;50.824;7.134;2024-02-23T05:40:05;3.70;99.90
20068;DHT22;10194;50.824;7.134;2024-02-23T05:42:37;3.80;99.90
20068;DHT22;10194;50.824;7.134;2024-02-23T05:45:04;3.60;99.90
20068;DHT22;10194;50.824;7.134;2024-02-23T05:47:30;3.60;99.90
20068;DHT22;10194;50.824;7.134;2024-02-23T05:49:56;3.50;99.90
20068;DHT22;10194;50.824;7.134;2024-02-23T05:52:22;3.50;99.90
20068;DHT22;10194;50.824;7.134;2024-02-23T05:54:48;3.60;99.90
20068;DHT22;10194;50.824;7.134;2024-02-23T05:57:14;3.60;99.90
20068;DHT22;10194;50.824;7.134;2024-02-23T05:59:39;3.60;99.90
20068;DHT22;10194;50.824;7.134;2024-02-23T06:02:05;3.50;99.90
20068;DHT22;10194;50.824;7.134;2024-02-23T06:04:31;3.60;99.90
20068;DHT22;10194;50.824;7.134;2024-02-23T06:06:57;3.60;99.90
20068;DHT22;10194;50.824;7.134;2024-02-23T06:09:23;3.60;99.90
20068;DHT22;10194;50.824;7.134;2024-02-23T06:11:48;3.50;99.90
20068;DHT22;10194;50.824;7.134;2024-02-23T06:14:14;3.60;99.90
20068;DHT22;10194;50.824;7.134;2024-02-23T06:16:40;3.70;99.90
20068;DHT22;10194;50.824;7.134;2024-02-23T06:19:06;3.70;99.90
20068;DHT22;10194;50.824;7.134;2024-02-23T06:21:32;3.60;99.90
20068;DHT22;10194;50.824;7.134;2024-02-23T06:23:58;3.50;99.90
20068;DHT22;10194;50.824;7.134;2024-02-23T06:26:24;3.50;99.90
20068;DHT22;10194;50.824;7.134;2024-02-23T06:28:49;3.50;99.90
20068;DHT22;10194;50.824;7.134;2024-02-23T06:31:15;3.60;99.90
20068;DHT22;10194;50.824;7.134;2024-02-23T06:33:41;3.80;99.90
20068;DHT22;10194;50.824;7.134;2024-02-23T06:36:09;3.90;99.90
20068;DHT22;10194;50.824;7.134;2024-02-23T06:38:35;4.20;99.90
20068;DHT22;10194;50.824;7.134;2024-02-23T06:41:00;4.30;99.90
20068;DHT22;10194;50.824;7.134;2024-02-23T06:43:26;4.50;99.90
20068;DHT22;10194;50.824;7.134;2024-02-23T06:45:52;4.50;99.90
20068;DHT22;10194;50.824;7.134;2024-02-23T06:48:18;4.40;99.90
20068;DHT22;10194;50.824;7.134;2024-02-23T06:50:44;4.40;99.90
20068;DHT22;10194;50.824;7.134;2024-02-23T06:53:10;4.40;99.90
20068;DHT22;10194;50.824;7.134;2024-02-23T06:55:35;4.60;99.90
20068;DHT22;10194;50.824;7.134;2024-02-23T06:58:02;4.60;99.90
20068;DHT22;10194;50.824;7.134;2024-02-23T07:00:30;4.50;99.90
20068;DHT22;10194;50.824;7.134;2024-02-23T07:02:56;4.50;99.90
20068;DHT22;10194;50.824;7.134;2024-02-23T07:05:24;4.50;99.90
20068;DHT22;10194;50.824;7.134;2024-02-23T07:07:51;4.60;99.90
20068;DHT22;10194;50.824;7.134;2024-02-23T07:10:16;4.60;99.90
20068;DHT22;10194;50.824;7.134;2024-02-23T07:12:43;4.70;99.90
20068;DHT22;10194;50.824;7.134;2024-02-23T07:15:10;4.70;99.90
20068;DHT22;10194;50.824;7.134;2024-02-23T07:17:35;4.70;99.90
20068;DHT22;10194;50.824;7.134;2024-02-23T07:20:01;4.70;99.90
20068;DHT22;10194;50.824;7.134;2024-02-23T07:22:33;4.70;99.90
20068;DHT22;10194;50.824;7.134;2024-02-23T07:24:59;4.80;99.90
20068;DHT22;10194;50.824;7.134;2024-02-23T07:27:27;4.80;99.90
20068;DHT22;10194;50.824;7.134;2024-02-23T07:29:52;5.00;99.90
20068;DHT22;10194;50.824;7.134;2024-02-23T07:32:18;5.10;99.90
20068;DHT22;10194;50.824;7.134;2024-02-23T07:34:44;5.60;99.90
20068;DHT22;10194;50.824;7.134;2024-02-23T07:37:10;6.10;99.90
20068;DHT22;10194;50.824;7.134;2024-02-23T07:39:35;6.50;99.90
20068;DHT22;10194;50.824;7.134;2024-02-23T07:42:01;7.00;99.90
20068;DHT22;10194;50.824;7.134;2024-02-23T07:44:28;8.00;99.90
20068;DHT22;10194;50.824;7.134;2024-02-23T07:46:53;7.60;99.90
20068;DHT22;10194;50.824;7.134;2024-02-23T07:49:21;7.20;99.90
20068;DHT22;10194;50.824;7.134;2024-02-23T07:51:47;7.10;99.90
20068;DHT22;10194;50.824;7.134;2024-02-23T07:54:13;6.90;99.90
20068;DHT22;10194;50.824;7.134;2024-02-23T07:56:39;6.80;99.90
20068;DHT22;10194;50.824;7.134;2024-02-23T07:59:05;6.80;99.90
20068;DHT22;10194;50.824;7.134;2024-02-23T08:01:34;6.70;99.90
20068;DHT22;10194;50.824;7.134;2024-02-23T08:03:59;6.70;99.90
20068;DHT22;10194;50.824;7.134;2024-02-23T08:06:25;6.80;99.90
20068;DHT22;10194;50.824;7.134;2024-02-23T08:08:51;6.80;99.90
20068;DHT22;10194;50.824;7.134;2024-02-23T08:11:19;6.80;99.90
20068;DHT22;10194;50.824;7.134;2024-02-23T08:13:45;6.90;99.90
20068;DHT22;10194;50.824;7.134;2024-02-23T08:16:10;6.90;99.90
20068;DHT22;10194;50.824;7.134;2024-02-23T08:18:36;7.00;99.90
20068;DHT22;10194;50.824;7.134;2024-02-23T08:21:02;7.10;99.90
20068;DHT22;10194;50.824;7.134;2024-02-23T08:23:29;7.30;99.90
20068;DHT22;10194;50.824;7.134;2024-02-23T08:25:55;7.40;99.90
20068;DHT22;10194;50.824;7.134;2024-02-23T08:28:26;7.60;99.90
20068;DHT22;10194;50.824;7.134;2024-02-23T08:30:51;7.60;99.90
20068;DHT22;10194;50.824;7.134;2024-02-23T08:33:18;7.60;99.90
20068;DHT22;10194;50.824;7.134;2024-02-23T08:35:44;7.60;99.90
20068;DHT22;10194;50.824;7.134;2024-02-23T08:38:10;7.60;99.90
20068;DHT22;10194;50.824;7.134;2024-02-23T08:40:36;7.50;99.90
20068;DHT22;10194;50.824;7.134;2024-02-23T08:43:02;7.50;99.90
20068;DHT22;10194;50.824;7.134;2024-02-23T08:45:28;7.50;99.90
20068;DHT22;10194;50.824;7.134;2024-02-23T08:47:54;7.70;99.90
20068;DHT22;10194;50.824;7.134;2024-02-23T08:50:19;7.70;99.90
20068;DHT22;10194;50.824;7.134;2024-02-23T08:52:46;7.70;99.90
20068;DHT22;10194;50.824;7.134;2024-02-23T08:55:12;7.90;99.90
20068;DHT22;10194;50.824;7.134;2024-02-23T08:57:37;8.00;99.90
20068;DHT22;10194;50.824;7.134;2024-02-23T09:00:04;8.00;99.90
20068;DHT22;10194;50.824;7.134;2024-02-23T09:02:31;8.10;99.90
20068;DHT22;10194;50.824;7.134;2024-02-23T09:05:01;8.00;99.90
20068;DHT22;10194;50.824;7.134;2024-02-23T09:07:27;8.00;99.90
20068;DHT22;10194;50.824;7.134;2024-02-23T09:09:52;8.00;99.90
20068;DHT22;10194;50.824;7.134;2024-02-23T09:12:19;7.90;99.90
20068;DHT22;10194;50.824;7.134;2024-02-23T09:14:46;7.90;99.90
20068;DHT22;10194;50.824;7.134;2024-02-23T09:17:12;8.00;99.90
20068;DHT22;10194;50.824;7.134;2024-02-23T09:19:38;7.90;99.90
20068;DHT22;10194;50.824;7.134;2024-02-23T09:22:04;7.80;99.90
20068;DHT22;10194;50.824;7.134;2024-02-23T09:24:31;7.80;99.90
20068;DHT22;10194;50.824;7.134;2024-02-23T09:26:57;7.70;99.90
20068;DHT22;10194;50.824;7.134;2024-02-23T09:29:23;7.70;99.90
20068;DHT22;10194;50.824;7.134;2024-02-23T09:31:49;7.70;99.90
20068;DHT22;10194;50.824;7.134;2024-02-23T09:34:15;7.80;99.90
20068;DHT22;10194;50.824;7.134;2024-02-23T09:36:41;7.80;99.90
20068;DHT22;10194;50.824;7.134;2024-02-23T09:39:07;7.90;99.90
20068;DHT22;10194;50.824;7.134;2024-02-23T09:41:33;8.10;99.90
20068;DHT22;10194;50.824;7.134;2024-02-23T09:44:01;8.10;99.90
20068;DHT22;10194;50.824;7.134;2024-02-23T09:46:27;8.10;99.90
20068;DHT22;10194;50.824;7.134;2024-02-23T09:48:55;8.20;99.90
20068;DHT22;10194;50.824;7.134;2024-02-23T09:51:23;8.30;99.90
20068;DHT22;10194;50.824;7.134;2024-02-23T09:53:50;8.40;99.90
20068;DHT22;10194;50.824;7.134;2024-02-23T09:56:36;8.40;99.90
20068;DHT22;10194;50.824;7.134;2024-02-23T09:59:03;8.50;99.90
20068;DHT22;10194;50.824;7.134;2024-02-23T10:01:31;8.50;99.90
20068;DHT22;10194;50.824;7.134;2024-02-23T10:04:00;8.60;99.90
20068;DHT22;10194;50.824;7.134;2024-02-23T10:06:28;8.50;99.90
20068;DHT22;10194;50.824;7.134;2024-02-23T10:08:55;8.40;99.90
20068;DHT22;10194;50.824;7.134;2024-02-23T10:11:23;8.40;99.90
20068;DHT22;10194;50.824;7.134;2024-02-23T10:13:50;8.30;99.90
20068;DHT22;10194;50.824;7.134;2024-02-23T10:16:20;8.40;99.90
20068;DHT22;10194;50.824;7.134;2024-02-23T10:18:50;8.60;99.90
20068;DHT22;10194;50.824;7.134;2024-02-23T10:21:17;8.70;99.90
20068;DHT22;10194;50.824;7.134;2024-02-23T10:23:47;8.90;99.90
20068;DHT22;10194;50.824;7.134;2024-02-23T10:26:15;8.90;99.90
20068;DHT22;10194;50.824;7.134;2024-02-23T10:28:48;8.90;99.90
20068;DHT22;10194;50.824;7.134;2024-02-23T10:31:14;8.90;99.90
20068;DHT22;10194;50.824;7.134;2024-02-23T10:33:40;8.90;99.90
20068;DHT22;10194;50.824;7.134;2024-02-23T10:36:07;8.90;99.90
20068;DHT22;10194;50.824;7.134;2024-02-23T10:38:38;9.00;99.90
20068;DHT22;10194;50.824;7.134;2024-02-23T10:41:10;9.10;99.90
20068;DHT22;10194;50.824;7.134;2024-02-23T10:43:48;9.30;99.90
20068;DHT22;10194;50.824;7.134;2024-02-23T10:46:15;9.20;99.90
20068;DHT22;10194;50.824;7.134;2024-02-23T10:48:44;9.10;99.90
20068;DHT22;10194;50.824;7.134;2024-02-23T10:51:13;9.20;99.90
20068;DHT22;10194;50.824;7.134;2024-02-23T10:53:39;9.30;99.90
20068;DHT22;10194;50.824;7.134;2024-02-23T10:56:06;9.40;99.90
20068;DHT22;10194;50.824;7.134;2024-02-23T10:58:34;9.20;99.90
20068;DHT22;10194;50.824;7.134;2024-02-23T11:01:07;9.20;99.90
20068;DHT22;10194;50.824;7.134;2024-02-23T11:03:36;9.30;99.90
20068;DHT22;10194;50.824;7.134;2024-02-23T11:06:06;9.40;99.90
20068;DHT22;10194;50.824;7.134;2024-02-23T11:08:33;9.40;99.90
20068;DHT22;10194;50.824;7.134;2024-02-23T11:11:08;9.30;99.90
20068;DHT22;10194;50.824;7.134;2024-02-23T11:13:36;9.30;99.90
20068;DHT22;10194;50.824;7.134;2024-02-23T11:16:06;9.30;99.90
20068;DHT22;10194;50.824;7.134;2024-02-23T11:18:35;9.30;99.90
20068;DHT22;10194;50.824;7.134;2024-02-23T11:21:05;9.30;99.90
20068;DHT22;10194;50.824;7.134;2024-02-23T11:23:49;9.10;99.90
20068;DHT22;10194;50.824;7.134;2024-02-23T11:26:18;9.10;99.90
20068;DHT22;10194;50.824;7.134;2024-02-23T11:28:51;9.00;99.90
20068;DHT22;10194;50.824;7.134;2024-02-23T11:31:22;9.10;99.90
20068;DHT22;10194;50.824;7.134;2024-02-23T11:33:54;9.10;99.90
20068;DHT22;10194;50.824;7.134;2024-02-23T11:36:34;9.20;99.90
20068;DHT22;10194;50.824;7.134;2024-02-23T11:39:02;9.30;99.90
20068;DHT22;10194;50.824;7.134;2024-02-23T11:41:29;9.40;99.90
20068;DHT22;10194;50.824;7.134;2024-02-23T11:43:55;9.50;99.90
20068;DHT22;10194;50.824;7.134;2024-02-23T11:46:24;9.70;99.90
20068;DHT22;10194;50.824;7.134;2024-02-23T11:48:50;9.50;99.90
20068;DHT22;10194;50.824;7.134;2024-02-23T11:51:22;9.60;99.90
20068;DHT22;10194;50.824;7.134;2024-02-23T11:53:49;9.60;99.90
20068;DHT22;10194;50.824;7.134;2024-02-23T11:56:16;9.70;99.90
20068;DHT22;10194;50.824;7.134;2024-02-23T11:58:44;9.70;99.90
20068;DHT22;10194;50.824;7.134;2024-02-23T12:01:12;9.70;99.90
20068;DHT22;10194;50.824;7.134;2024-02-23T12:03:37;9.80;99.90
20068;DHT22;10194;50.824;7.134;2024-02-23T12:06:05;9.70;99.90
20068;DHT22;10194;50.824;7.134;2024-02-23T12:08:33;9.70;99.90
20068;DHT22;10194;50.824;7.134;2024-02-23T12:11:08;9.70;99.90
20068;DHT22;10194;50.824;7.134;2024-02-23T12:13:38;9.70;99.90
20068;DHT22;10194;50.824;7.134;2024-02-23T12:16:06;9.70;99.90
20068;DHT22;10194;50.824;7.134;2024-02-23T12:18:34;9.80;99.90
20068;DHT22;10194;50.824;7.134;2024-02-23T12:21:08;9.70;99.90
20068;DHT22;10194;50.824;7.134;2024-02-23T12:23:43;9.50;99.90
20068;DHT22;10194;50.824;7.134;2024-02-23T12:26:14;9.50;99.90
20068;DHT22;10194;50.824;7.134;2024-02-23T12:28:41;9.50;99.90
20068;DHT22;10194;50.824;7.134;2024-02-23T12:31:08;9.60;99.90
20068;DHT22;10194;50.824;7.134;2024-02-23T12:33:40;9.60;99.90
20068;DHT22;10194;50.824;7.134;2024-02-23T12:36:07;9.60;99.90
20068;DHT22;10194;50.824;7.134;2024-02-23T12:38:34;9.60;99.90
20068;DHT22;10194;50.824;7.134;2024-02-23T12:41:01;9.40;99.90
20068;DHT22;10194;50.824;7.134;2024-02-23T12:43:28;9.50;99.90
20068;DHT22;10194;50.824;7.134;2024-02-23T12:45:55;9.40;99.90
20068;DHT22;10194;50.824;7.134;2024-02-23T12:48:22;9.40;99.90
20068;DHT22;10194;50.824;7.134;2024-02-23T12:50:49;9.30;99.90
20068;DHT22;10194;50.824;7.134;2024-02-23T12:53:37;9.20;99.90
20068;DHT22;10194;50.824;7.134;2024-02-23T12:56:05;9.20;99.90
20068;DHT22;10194;50.824;7.134;2024-02-23T12:58:40;9.10;99.90
20068;DHT22;10194;50.824;7.134;2024-02-23T13:01:07;9.10;99.90
20068;DHT22;10194;50.824;7.134;2024-02-23T13:03:34;9.20;99.90
20068;DHT22;10194;50.824;7.134;2024-02-23T13:06:01;9.30;99.90
20068;DHT22;10194;50.824;7.134;2024-02-23T13:08:28;9.30;99.90
20068;DHT22;10194;50.824;7.134;2024-02-23T13:10:54;9.40;99.90
20068;DHT22;10194;50.824;7.134;2024-02-23T13:13:22;9.50;99.90
20068;DHT22;10194;50.824;7.134;2024-02-23T13:15:49;9.70;99.90
20068;DHT22;10194;50.824;7.134;2024-02-23T13:18:16;9.80;99.90
20068;DHT22;10194;50.824;7.134;2024-02-23T13:20:42;9.80;99.90
20068;DHT22;10194;50.824;7.134;2024-02-23T13:23:09;9.70;99.90
20068;DHT22;10194;50.824;7.134;2024-02-23T13:25:36;9.70;99.90
20068;DHT22;10194;50.824;7.134;2024-02-23T13:28:02;9.70;99.90
20068;DHT22;10194;50.824;7.134;2024-02-23T13:30:30;9.70;99.90
20068;DHT22;10194;50.824;7.134;2024-02-23T13:32:56;9.80;99.90
20068;DHT22;10194;50.824;7.134;2024-02-23T13:35:22;9.80;99.90
20068;DHT22;10194;50.824;7.134;2024-02-23T13:37:48;9.80;99.90
20068;DHT22;10194;50.824;7.134;2024-02-23T13:40:14;9.90;99.90
20068;DHT22;10194;50.824;7.134;2024-02-23T13:42:41;10.00;99.90
20068;DHT22;10194;50.824;7.134;2024-02-23T13:45:08;10.10;99.90
20068;DHT22;10194;50.824;7.134;2024-02-23T13:47:36;10.00;99.90
20068;DHT22;10194;50.824;7.134;2024-02-23T13:50:02;10.00;99.90
20068;DHT22;10194;50.824;7.134;2024-02-23T13:52:29;9.80;99.90
20068;DHT22;10194;50.824;7.134;2024-02-23T13:54:55;9.70;99.90
20068;DHT22;10194;50.824;7.134;2024-02-23T13:57:21;9.70;99.90
20068;DHT22;10194;50.824;7.134;2024-02-23T13:59:47;9.70;99.90
20068;DHT22;10194;50.824;7.134;2024-02-23T14:02:13;9.70;99.90
20068;DHT22;10194;50.824;7.134;2024-02-23T14:04:39;9.80;99.90
20068;DHT22;10194;50.824;7.134;2024-02-23T14:07:06;9.80;99.90
20068;DHT22;10194;50.824;7.134;2024-02-23T14:09:32;9.90;99.90
20068;DHT22;10194;50.824;7.134;2024-02-23T14:11:58;10.00;99.90
20068;DHT22;10194;50.824;7.134;2024-02-23T14:14:24;10.00;99.90
20068;DHT22;10194;50.824;7.134;2024-02-23T14:16:50;10.10;99.90
20068;DHT22;10194;50.824;7.134;2024-02-23T14:19:16;10.20;99.90
20068;DHT22;10194;50.824;7.134;2024-02-23T14:21:43;10.00;99.90
20068;DHT22;10194;50.824;7.134;2024-02-23T14:24:09;9.90;99.90
20068;DHT22;10194;50.824;7.134;2024-02-23T14:26:34;9.80;99.90
20068;DHT22;10194;50.824;7.134;2024-02-23T14:29:00;9.70;99.90
20068;DHT22;10194;50.824;7.134;2024-02-23T14:31:27;9.70;99.90
20068;DHT22;10194;50.824;7.134;2024-02-23T14:33:53;9.70;99.90
20068;DHT22;10194;50.824;7.134;2024-02-23T14:36:19;9.80;99.90
20068;DHT22;10194;50.824;7.134;2024-02-23T14:38:45;9.90;99.90
20068;DHT22;10194;50.824;7.134;2024-02-23T14:41:12;9.90;99.90
20068;DHT22;10194;50.824;7.134;2024-02-23T14:43:37;9.80;99.90
20068;DHT22;10194;50.824;7.134;2024-02-23T14:46:04;9.80;99.90
20068;DHT22;10194;50.824;7.134;2024-02-23T14:48:30;9.80;99.90
20068;DHT22;10194;50.824;7.134;2024-02-23T14:50:56;9.90;99.90
20068;DHT22;10194;50.824;7.134;2024-02-23T14:53:23;10.00;99.90
20068;DHT22;10194;50.824;7.134;2024-02-23T14:55:49;10.20;99.90
20068;DHT22;10194;50.824;7.134;2024-02-23T14:58:15;10.30;99.90
20068;DHT22;10194;50.824;7.134;2024-02-23T15:00:41;10.30;99.90
20068;DHT22;10194;50.824;7.134;2024-02-23T15:03:06;10.30;99.90
20068;DHT22;10194;50.824;7.134;2024-02-23T15:05:34;10.20;99.90
20068;DHT22;10194;50.824;7.134;2024-02-23T15:08:00;10.20;99.90
20068;DHT22;10194;50.824;7.134;2024-02-23T15:10:25;10.30;99.90
20068;DHT22;10194;50.824;7.134;2024-02-23T15:12:53;10.20;99.90
20068;DHT22;10194;50.824;7.134;2024-02-23T15:15:20;10.20;99.90
20068;DHT22;10194;50.824;7.134;2024-02-23T15:17:46;10.10;99.90
20068;DHT22;10194;50.824;7.134;2024-02-23T15:20:12;10.10;99.90
20068;DHT22;10194;50.824;7.134;2024-02-23T15:22:38;10.10;99.90
20068;DHT22;10194;50.824;7.134;2024-02-23T15:25:08;10.00;99.90
20068;DHT22;10194;50.824;7.134;2024-02-23T15:27:35;9.80;99.90
20068;DHT22;10194;50.824;7.134;2024-02-23T15:30:02;9.80;99.90
20068;DHT22;10194;50.824;7.134;2024-02-23T15:32:29;9.70;99.90
20068;DHT22;10194;50.824;7.134;2024-02-23T15:34:54;9.60;99.90
20068;DHT22;10194;50.824;7.134;2024-02-23T15:37:20;9.70;99.90
20068;DHT22;10194;50.824;7.134;2024-02-23T15:39:46;9.80;99.90
20068;DHT22;10194;50.824;7.134;2024-02-23T15:42:12;9.80;99.90